UDSG

Details ICAO UDSG (LWN)
Name GYUMRI
Region Armenia
Timezone Asia/Yerevan (UTC+4.0)
Plans Departing 10
Arriving 11
Stats Elevation 5,000 ft / 1,524 m (AMSL)
Location 40.750369° 43.859341°
Runways 1
Magnetic Variation 6.397° E
Sunrise 2018-05-24 01:41:42 UTC / 2018-05-24 05:41:42 Local
Sunset 2018-05-24 16:23:57 UTC / 2018-05-24 20:23:57 Local
Advertisement - Login to hide

Runways

ID Width Length Bearing (true) Bearing (mag) Surface Threshold Offset Overrun Length
02 147 ft / 45 m 10,531 ft / 3,210 m 23.60° 17.20° Asphalt 0 ft / 0 m 0 ft / 0 m
20 147 ft / 45 m 10,531 ft / 3,210 m 203.61° 197.21° Asphalt 0 ft / 0 m 0 ft / 0 m

Map

Weather


0- 5 10 15 20 25 30 35+ Temperature / ° C

Clouds and Precipitation
Forecast for 2018-05-24 00:00 UTC. Updated 2 hours ago

Ground ~20,000 ft ~40,000 ft Winds

METAR

UDSG 240030Z 05008KT 9999 BKN046 14/04 Q1020 R02/CLRD70 NOSIG

TAF

Not found

Frequencies

Recorded 128.70 MHz ATIS
Approach 127.70 MHz GYUMRI APP
Tower 120.60 MHz GYUMRI TWR
Warning: Do not use this data for real-world aviation or navigation. No guarantee of current accuracy is given.